Berkley, Iowa
Current Conditions -  °F | °C
As of 7:15 AM on Thursday 18 Dec 2014 (Local Time) from KPRO Reporting Station
Broken Clouds Broken Clouds  
Wind Chill: 15°   Ceiling: 8000
Heat Index: 23°   Visibility: 10mi
Dew Point: 20°   Wind: 6mph
Humidity: 89%   Direction: 110°ESE
Pressure: 30.28"   Gusts: NA
Location:  41.8713°N, 94.0973°W
Report Text: KPRO 181315Z AUTO 11005KT 10SM SCT075 BKN080 M05/M07 A3028 RMK AO2 T10521067
Loading
Personal Weather Stations






























Interactive Weather Map New forecast layout! Learn more

10-Day Weather Forecast

Advertisements
Track Severe Weather on mobile